createdAt,value
2023-04-12T00:03:08.469Z,77.80
2023-04-12T00:06:14.429Z,76.65
2023-04-12T00:09:19.161Z,76.77
2023-04-12T00:12:24.047Z,76.13
2023-04-12T00:15:29.141Z,75.49
2023-04-12T00:18:33.638Z,76.83
2023-04-12T00:21:37.743Z,76.37
2023-04-12T00:24:42.543Z,76.21
2023-04-12T00:27:47.042Z,75.81
2023-04-12T00:30:51.672Z,75.19
2023-04-12T00:33:55.797Z,75.61
2023-04-12T00:37:02.477Z,76.49
2023-04-12T00:40:10.808Z,76.16
2023-04-12T00:43:19.596Z,75.76
2023-04-12T00:46:23.707Z,75.90
2023-04-12T00:49:31.539Z,75.94
2023-04-12T00:52:35.601Z,75.53
2023-04-12T00:55:40.110Z,74.18
2023-04-12T00:58:44.532Z,73.15
2023-04-12T01:01:48.416Z,75.38
2023-04-12T01:04:54.276Z,74.74
2023-04-12T01:08:16.802Z,75.15
2023-04-12T01:11:43.778Z,74.71
2023-04-12T01:15:04.126Z,75.38
2023-04-12T01:18:18.566Z,73.68
2023-04-12T01:21:54.426Z,73.46
2023-04-12T01:25:25.358Z,74.31
2023-04-12T01:28:35.798Z,76.30
2023-04-12T01:31:42.990Z,75.59
2023-04-12T01:34:47.520Z,74.51
2023-04-12T01:37:51.819Z,73.70
2023-04-12T01:40:56.749Z,74.54
2023-04-12T01:44:00.645Z,73.85
2023-04-12T01:47:05.223Z,74.19
2023-04-12T01:50:35.331Z,75.40
2023-04-12T01:54:00.358Z,75.52
2023-04-12T01:57:06.111Z,74.00
2023-04-12T02:00:12.408Z,73.00
2023-04-12T02:03:22.725Z,72.86
2023-04-12T02:06:28.625Z,74.74
2023-04-12T02:09:39.147Z,73.94
2023-04-12T02:12:43.718Z,73.42
2023-04-12T02:15:50.459Z,73.41
2023-04-12T02:18:55.020Z,72.44
2023-04-12T02:21:59.985Z,71.90
2023-04-12T02:25:09.944Z,72.55
2023-04-12T02:28:15.940Z,72.09
2023-04-12T02:31:21.101Z,72.79
2023-04-12T02:34:26.662Z,71.12
2023-04-12T02:37:39.405Z,69.66
2023-04-12T02:40:44.517Z,70.60
2023-04-12T02:43:52.647Z,70.66
2023-04-12T02:46:58.296Z,69.57
2023-04-12T02:50:03.216Z,69.71
2023-04-12T02:53:11.660Z,70.49
2023-04-12T02:56:19.757Z,69.23
2023-04-12T02:59:30.305Z,68.80
2023-04-12T03:02:59.724Z,68.90
2023-04-12T03:06:07.299Z,68.26
2023-04-12T03:09:14.073Z,66.25
2023-04-12T03:12:20.953Z,66.45
2023-04-12T03:15:44.750Z,66.66
2023-04-12T03:18:52.444Z,66.83
2023-04-12T03:22:00.897Z,65.59
2023-04-12T03:25:10.636Z,63.93
2023-04-12T03:28:19.271Z,65.61
2023-04-12T03:31:28.051Z,63.46
2023-04-12T03:34:35.927Z,66.19
2023-04-12T03:37:48.919Z,66.06
2023-04-12T03:40:54.495Z,63.96
2023-04-12T03:44:06.292Z,65.10
2023-04-12T03:47:12.250Z,63.61
2023-04-12T03:50:16.396Z,63.99
2023-04-12T03:53:25.743Z,64.05
2023-04-12T03:56:30.821Z,63.31
2023-04-12T03:59:40.117Z,61.09
2023-04-12T04:02:48.164Z,60.87
2023-04-12T04:05:54.312Z,62.63
2023-04-12T04:08:59.257Z,60.36
2023-04-12T04:12:04.430Z,60.07
2023-04-12T04:15:11.745Z,59.66
2023-04-12T04:18:16.721Z,58.87
2023-04-12T04:21:23.221Z,57.75
2023-04-12T04:24:32.715Z,58.22
2023-04-12T04:27:39.226Z,55.21
2023-04-12T04:30:46.989Z,55.49
2023-04-12T04:33:53.042Z,55.51
2023-04-12T04:37:04.470Z,58.16
2023-04-12T04:40:18.354Z,54.62
2023-04-12T04:43:23.322Z,54.61
2023-04-12T04:46:33.314Z,54.88
2023-04-12T04:49:38.770Z,53.13
2023-04-12T04:52:56.852Z,51.11
2023-04-12T04:56:02.309Z,50.25
2023-04-12T04:59:11.240Z,49.39
2023-04-12T05:02:17.556Z,49.95
2023-04-12T05:05:26.817Z,51.89
2023-04-12T05:08:45.628Z,49.69
2023-04-12T05:12:12.644Z,50.44
2023-04-12T05:15:23.154Z,46.82
2023-04-12T05:18:28.001Z,47.45
2023-04-12T05:21:33.877Z,47.75
2023-04-12T05:24:47.690Z,47.07
2023-04-12T05:27:53.403Z,49.47
2023-04-12T05:30:58.035Z,47.52
2023-04-12T05:34:14.421Z,46.67
2023-04-12T05:37:29.443Z,49.84
2023-04-12T05:40:33.481Z,46.99
2023-04-12T05:43:38.598Z,46.09
2023-04-12T05:46:45.306Z,45.84
2023-04-12T05:49:50.583Z,46.00
2023-04-12T05:52:56.404Z,47.15
2023-04-12T05:56:05.742Z,45.68
2023-04-12T05:59:12.545Z,45.64
2023-04-12T06:02:17.404Z,44.03
2023-04-12T06:05:22.227Z,46.46
2023-04-12T06:08:30.140Z,46.02
2023-04-12T06:11:34.772Z,47.09
2023-04-12T06:14:39.932Z,46.65
2023-04-12T06:17:46.175Z,46.29
2023-04-12T06:20:50.859Z,44.78
2023-04-12T06:23:55.881Z,44.87
2023-04-12T06:27:00.371Z,45.57
2023-04-12T06:30:05.451Z,45.47
2023-04-12T06:33:13.290Z,46.15
2023-04-12T06:36:18.244Z,45.45
2023-04-12T06:39:22.938Z,44.62
2023-04-12T06:42:27.377Z,43.67
2023-04-12T06:45:33.047Z,44.96
2023-04-12T06:48:38.692Z,44.98
2023-04-12T06:51:43.206Z,45.10
2023-04-12T06:54:47.885Z,44.02
2023-04-12T06:57:53.005Z,45.56
2023-04-12T07:01:09.289Z,43.08
2023-04-12T07:04:14.921Z,43.81
2023-04-12T07:07:22.404Z,44.00
2023-04-12T07:10:27.155Z,45.89
2023-04-12T07:13:32.092Z,45.27
2023-04-12T07:16:36.452Z,46.12
2023-04-12T07:19:42.896Z,45.67
2023-04-12T07:22:46.979Z,45.32
2023-04-12T07:25:51.270Z,46.44
2023-04-12T07:28:55.930Z,46.98
2023-04-12T07:32:03.142Z,46.29
2023-04-12T07:35:07.946Z,46.36
2023-04-12T07:38:12.777Z,46.10
2023-04-12T07:41:19.244Z,47.04
2023-04-12T07:44:23.693Z,47.28
2023-04-12T07:47:27.975Z,46.77
2023-04-12T07:50:32.588Z,47.07
2023-04-12T07:53:38.736Z,47.75
2023-04-12T07:56:43.153Z,47.63
2023-04-12T07:59:47.699Z,47.54
2023-04-12T08:02:52.459Z,47.33
2023-04-12T08:05:57.347Z,47.46
2023-04-12T08:09:02.082Z,47.11
2023-04-12T08:12:06.607Z,47.41
2023-04-12T08:15:11.153Z,47.09
2023-04-12T08:18:15.959Z,47.84
2023-04-12T08:21:20.074Z,48.30
2023-04-12T08:24:24.691Z,47.94
2023-04-12T08:27:31.466Z,47.80
2023-04-12T08:30:36.669Z,48.59
2023-04-12T08:33:41.382Z,48.19
2023-04-12T08:36:46.122Z,48.91
2023-04-12T08:39:51.770Z,47.59
2023-04-12T08:42:57.551Z,49.29
2023-04-12T08:46:07.021Z,49.48
2023-04-12T08:49:12.508Z,49.81
2023-04-12T08:52:16.472Z,49.14
2023-04-12T08:55:21.293Z,49.88
2023-04-12T08:58:26.702Z,50.83
2023-04-12T09:01:31.270Z,51.26
2023-04-12T09:04:35.868Z,51.56
2023-04-12T09:07:41.061Z,50.52
2023-04-12T09:10:45.445Z,50.33
2023-04-12T09:13:50.756Z,51.15
2023-04-12T09:16:55.261Z,50.42
2023-04-12T09:20:00.247Z,50.05
2023-04-12T09:23:25.578Z,51.47
2023-04-12T09:26:30.541Z,52.57
2023-04-12T09:29:35.477Z,52.61
2023-04-12T09:32:40.681Z,52.82
2023-04-12T09:35:45.137Z,52.28
2023-04-12T09:39:10.305Z,52.36
2023-04-12T09:42:31.651Z,52.95
2023-04-12T09:45:39.757Z,53.94
2023-04-12T09:48:52.015Z,54.30
2023-04-12T09:51:58.893Z,54.49
2023-04-12T09:55:06.323Z,54.49
2023-04-12T09:58:12.714Z,55.27
2023-04-12T10:01:17.660Z,56.24
2023-04-12T10:04:22.474Z,56.19
2023-04-12T10:07:28.135Z,55.94
2023-04-12T10:10:34.095Z,55.47
2023-04-12T10:13:38.846Z,55.91
2023-04-12T10:16:44.756Z,56.59
2023-04-12T10:19:49.762Z,55.52
2023-04-12T10:22:55.077Z,55.97
2023-04-12T10:26:05.506Z,56.33
2023-04-12T10:29:35.368Z,56.59
2023-04-12T10:32:40.540Z,56.77
2023-04-12T10:36:09.460Z,57.39
2023-04-12T10:39:15.622Z,57.86
2023-04-12T10:42:26.119Z,57.46
2023-04-12T10:45:34.839Z,58.16
2023-04-12T10:49:00.164Z,56.56
2023-04-12T10:52:14.769Z,57.60
2023-04-12T10:55:39.259Z,58.11
2023-04-12T10:58:50.926Z,58.30
2023-04-12T11:02:16.691Z,58.49
2023-04-12T11:05:28.251Z,58.78
2023-04-12T11:08:42.094Z,59.36
2023-04-12T11:12:10.794Z,59.00
2023-04-12T11:15:15.717Z,59.61
2023-04-12T11:18:29.061Z,59.83
2023-04-12T11:21:35.070Z,60.28
2023-04-12T11:24:47.638Z,60.89
2023-04-12T11:27:53.716Z,60.56
2023-04-12T11:31:00.625Z,60.82
2023-04-12T11:34:05.172Z,60.37
2023-04-12T11:37:10.751Z,59.78
2023-04-12T11:40:16.194Z,59.43
2023-04-12T11:43:23.208Z,60.01
2023-04-12T11:46:29.464Z,59.79
2023-04-12T11:49:34.646Z,60.05
2023-04-12T11:52:40.101Z,59.81
2023-04-12T11:55:50.694Z,59.89
2023-04-12T11:58:55.289Z,60.14
2023-04-12T12:02:01.528Z,59.77
2023-04-12T12:05:08.780Z,59.84
2023-04-12T12:08:14.351Z,59.40
2023-04-12T12:11:24.174Z,58.73
2023-04-12T12:14:28.735Z,58.70
2023-04-12T12:17:41.120Z,59.06
2023-04-12T12:20:52.781Z,59.63
2023-04-12T12:23:58.546Z,59.66
2023-04-12T12:27:04.415Z,59.93
2023-04-12T12:30:13.264Z,59.82
2023-04-12T12:33:26.841Z,59.87
2023-04-12T12:36:39.544Z,59.58
2023-04-12T12:40:25.123Z,59.53
2023-04-12T12:43:30.257Z,58.87
2023-04-12T12:46:50.818Z,58.94
2023-04-12T12:49:56.944Z,59.29
2023-04-12T12:53:02.830Z,59.87
2023-04-12T12:56:07.515Z,59.67
2023-04-12T12:59:12.005Z,59.23
2023-04-12T13:02:20.757Z,58.49
2023-04-12T13:05:25.361Z,58.40
2023-04-12T13:08:36.185Z,58.82
2023-04-12T13:11:40.756Z,59.09
2023-04-12T13:14:45.770Z,59.00
2023-04-12T13:17:50.356Z,59.32
2023-04-12T13:20:54.407Z,59.99
2023-04-12T13:23:58.631Z,59.82
2023-04-12T13:27:04.446Z,59.53
2023-04-12T13:30:09.602Z,60.24
2023-04-12T13:33:18.390Z,59.97
2023-04-12T13:36:27.567Z,60.35
2023-04-12T13:39:33.496Z,60.09
2023-04-12T13:42:38.077Z,59.71
2023-04-12T13:45:42.975Z,60.33
2023-04-12T13:48:48.111Z,60.49
2023-04-12T13:51:52.464Z,60.23
2023-04-12T13:54:56.345Z,61.24
2023-04-12T13:58:00.850Z,61.10
2023-04-12T14:01:06.555Z,61.14
2023-04-12T14:04:11.217Z,62.74
2023-04-12T14:07:15.865Z,62.26
2023-04-12T14:10:20.196Z,61.85
2023-04-12T14:13:25.410Z,61.64
2023-04-12T14:16:29.940Z,62.26
2023-04-12T14:19:34.060Z,63.11
2023-04-12T14:22:38.553Z,61.70
2023-04-12T14:25:43.498Z,62.11
2023-04-12T14:28:50.858Z,62.05
2023-04-12T14:31:55.299Z,61.62
2023-04-12T14:34:59.351Z,61.33
2023-04-12T14:38:03.545Z,62.43
2023-04-12T14:41:10.678Z,62.23
2023-04-12T14:44:14.579Z,62.49
2023-04-12T14:47:19.079Z,62.66
2023-04-12T14:50:23.873Z,62.95
2023-04-12T14:53:28.042Z,63.54
2023-04-12T14:56:34.889Z,63.38
2023-04-12T14:59:43.331Z,64.75
2023-04-12T15:02:49.902Z,64.46
2023-04-12T15:05:54.766Z,64.54
2023-04-12T15:09:00.682Z,65.49
2023-04-12T15:12:05.441Z,65.11
2023-04-12T15:15:10.585Z,65.65
2023-04-12T15:18:15.345Z,65.02
2023-04-12T15:21:19.493Z,64.86
2023-04-12T15:24:24.413Z,63.80
2023-04-12T15:27:28.986Z,64.31
2023-04-12T15:30:33.329Z,64.29
2023-04-12T15:33:37.972Z,65.60
2023-04-12T15:36:44.636Z,65.10
2023-04-12T15:39:49.377Z,65.02
2023-04-12T15:42:53.380Z,65.41
2023-04-12T15:45:57.494Z,66.89
2023-04-12T15:49:02.368Z,65.49
2023-04-12T15:52:06.999Z,66.53
2023-04-12T15:55:12.519Z,67.15
2023-04-12T15:58:16.653Z,67.47
2023-04-12T16:01:21.389Z,67.42
2023-04-12T16:04:27.896Z,66.50
2023-04-12T16:07:34.798Z,66.99
2023-04-12T16:10:40.247Z,67.86
2023-04-12T16:13:46.373Z,68.47
2023-04-12T16:16:50.977Z,68.30
2023-04-12T16:19:55.432Z,69.16
2023-04-12T16:23:00.249Z,68.59
2023-04-12T16:26:04.927Z,67.58
2023-04-12T16:29:09.585Z,67.02
2023-04-12T16:32:14.310Z,67.89
2023-04-12T16:35:18.496Z,67.75
2023-04-12T16:38:23.080Z,68.15
2023-04-12T16:41:27.208Z,68.63
2023-04-12T16:44:31.754Z,69.34
2023-04-12T16:47:40.708Z,68.38
2023-04-12T16:50:47.072Z,67.89
2023-04-12T16:53:51.716Z,69.33
2023-04-12T16:56:57.314Z,68.54
2023-04-12T17:00:02.109Z,66.93
2023-04-12T17:03:12.338Z,68.58
2023-04-12T17:06:17.979Z,69.45
2023-04-12T17:09:22.440Z,68.93
2023-04-12T17:12:26.770Z,69.45
2023-04-12T17:15:31.349Z,69.36
2023-04-12T17:18:37.733Z,69.97
2023-04-12T17:21:42.787Z,70.23
2023-04-12T17:24:47.252Z,70.58
2023-04-12T17:27:51.991Z,70.41
2023-04-12T17:30:59.023Z,70.23
2023-04-12T17:34:04.665Z,70.76
2023-04-12T17:37:09.369Z,69.79
2023-04-12T17:40:14.837Z,70.52
2023-04-12T17:43:19.117Z,70.73
2023-04-12T17:46:25.037Z,70.81
2023-04-12T17:49:29.593Z,70.33
2023-04-12T17:52:34.078Z,71.48
2023-04-12T17:55:39.546Z,70.66
2023-04-12T17:58:44.760Z,71.25
2023-04-12T18:01:49.355Z,70.86
2023-04-12T18:04:53.546Z,71.62
2023-04-12T18:07:58.096Z,71.21
2023-04-12T18:11:03.099Z,71.24
2023-04-12T18:14:08.212Z,70.85
2023-04-12T18:17:12.989Z,70.65
2023-04-12T18:20:17.967Z,71.72
2023-04-12T18:23:22.345Z,71.51
2023-04-12T18:26:27.282Z,70.49
2023-04-12T18:29:31.828Z,70.15
2023-04-12T18:32:36.086Z,70.33
2023-04-12T18:35:40.980Z,69.47
2023-04-12T18:38:45.686Z,70.33
2023-04-12T18:41:49.556Z,70.22
2023-04-12T18:44:54.185Z,70.38
2023-04-12T18:47:59.298Z,70.25
2023-04-12T18:51:03.644Z,70.36
2023-04-12T18:54:19.889Z,68.92
2023-04-12T18:57:24.589Z,69.44
2023-04-12T19:00:29.347Z,70.54
2023-04-12T19:03:34.778Z,69.71
2023-04-12T19:06:39.886Z,69.04
2023-04-12T19:09:44.465Z,69.16
2023-04-12T19:12:48.821Z,69.68
2023-04-12T19:15:56.553Z,68.44
2023-04-12T19:19:01.089Z,69.00
2023-04-12T19:22:05.694Z,67.53
2023-04-12T19:25:10.555Z,67.47
2023-04-12T19:28:16.478Z,67.30
2023-04-12T19:31:20.908Z,68.02
2023-04-12T19:34:25.477Z,67.55
2023-04-12T19:37:36.397Z,68.09
2023-04-12T19:40:40.802Z,67.71
2023-04-12T19:43:45.484Z,68.09
2023-04-12T19:46:50.387Z,68.41
2023-04-12T19:49:56.799Z,68.62
2023-04-12T19:53:01.606Z,68.57
2023-04-12T19:56:06.532Z,67.95
2023-04-12T19:59:11.470Z,68.38
2023-04-12T20:02:16.188Z,68.20
2023-04-12T20:05:27.617Z,67.86
2023-04-12T20:08:32.094Z,68.42
2023-04-12T20:11:36.601Z,68.43
2023-04-12T20:14:41.337Z,68.18
2023-04-12T20:17:46.654Z,67.87
2023-04-12T20:20:51.858Z,68.66
2023-04-12T20:23:56.295Z,68.66
2023-04-12T20:27:00.832Z,68.82
2023-04-12T20:30:09.580Z,68.24
2023-04-12T20:33:14.076Z,68.75
2023-04-12T20:36:18.189Z,68.55
2023-04-12T20:39:24.889Z,68.79
2023-04-12T20:42:29.431Z,68.08
2023-04-12T20:45:35.602Z,68.84
2023-04-12T20:48:40.157Z,69.14
2023-04-12T20:51:47.544Z,68.73
2023-04-12T20:54:54.072Z,67.49
2023-04-12T20:57:57.853Z,68.16
2023-04-12T21:01:08.501Z,68.24
2023-04-12T21:07:34.731Z,66.61
2023-04-12T21:10:38.914Z,67.17
2023-04-12T21:13:43.136Z,67.42
2023-04-12T21:16:49.689Z,66.41
2023-04-12T21:19:54.137Z,66.51
2023-04-12T21:22:58.534Z,66.80
2023-04-12T21:26:03.410Z,67.05
2023-04-12T21:29:07.383Z,65.92
2023-04-12T21:32:11.620Z,65.83
2023-04-12T21:35:17.048Z,65.40
2023-04-12T21:38:22.191Z,65.83
2023-04-12T21:41:26.728Z,66.24
2023-04-12T21:44:32.299Z,65.52
2023-04-12T21:47:37.668Z,64.65
2023-04-12T21:50:42.780Z,63.70
2023-04-12T21:53:47.963Z,64.25
2023-04-12T21:56:52.724Z,63.93
2023-04-12T21:59:57.351Z,63.39
2023-04-12T22:03:02.518Z,63.74
2023-04-12T22:06:07.958Z,64.37
2023-04-12T22:09:12.708Z,64.33
2023-04-12T22:12:18.791Z,63.00
2023-04-12T22:15:23.170Z,62.40
2023-04-12T22:18:28.130Z,60.81
2023-04-12T22:21:34.229Z,58.84
2023-04-12T22:24:39.510Z,56.27
2023-04-12T22:27:47.114Z,57.48
2023-04-12T22:30:52.402Z,56.30
2023-04-12T22:33:57.548Z,54.66
2023-04-12T22:37:04.400Z,54.61
2023-04-12T22:40:14.980Z,55.26
2023-04-12T22:43:19.038Z,57.34
2023-04-12T22:46:23.745Z,56.87
2023-04-12T22:49:29.337Z,55.38
2023-04-12T22:52:34.357Z,55.01
2023-04-12T22:55:40.352Z,57.04
2023-04-12T22:58:44.593Z,56.89
2023-04-12T23:01:48.615Z,56.33
2023-04-12T23:04:53.410Z,56.94
2023-04-12T23:07:58.002Z,56.08
2023-04-12T23:11:05.724Z,54.45
2023-04-12T23:14:11.084Z,54.66
2023-04-12T23:17:17.735Z,55.21
2023-04-12T23:20:22.612Z,54.74
2023-04-12T23:23:27.197Z,54.65
2023-04-12T23:26:31.801Z,54.01
2023-04-12T23:29:38.603Z,54.54
2023-04-12T23:32:43.068Z,52.03
2023-04-12T23:35:53.354Z,52.49
2023-04-12T23:39:00.945Z,52.13
2023-04-12T23:42:05.458Z,50.31
2023-04-12T23:45:11.667Z,50.81
2023-04-12T23:48:17.296Z,51.02
2023-04-12T23:51:22.978Z,50.99
2023-04-12T23:54:28.024Z,51.34
2023-04-12T23:57:32.487Z,50.47
